createdAt,value
2019-03-13T00:02:10.901Z,8.33
2019-03-13T00:04:41.272Z,8.30
2019-03-13T00:07:10.862Z,8.31
2019-03-13T00:09:41.530Z,8.30
2019-03-13T00:12:11.796Z,8.27
2019-03-13T00:14:41.586Z,8.15
2019-03-13T00:17:10.782Z,8.15
2019-03-13T00:19:40.571Z,8.12
2019-03-13T00:22:11.990Z,8.10
2019-03-13T00:24:41.416Z,7.87
2019-03-13T00:27:11.551Z,8.17
2019-03-13T00:29:41.302Z,8.14
2019-03-13T00:32:11.859Z,8.11
2019-03-13T00:34:41.402Z,8.12
2019-03-13T00:37:11.037Z,7.77
2019-03-13T00:39:40.974Z,8.07
2019-03-13T00:42:10.977Z,8.08
2019-03-13T00:44:40.790Z,8.08
2019-03-13T00:47:10.018Z,8.08
2019-03-13T00:49:40.103Z,8.07
2019-03-13T00:52:09.891Z,8.08
2019-03-13T00:54:39.706Z,8.04
2019-03-13T00:57:10.079Z,6.60
2019-03-13T00:59:40.041Z,7.99
2019-03-13T01:02:14.966Z,7.99
2019-03-13T01:04:51.746Z,7.50
2019-03-13T01:07:21.470Z,7.95
2019-03-13T01:09:51.880Z,7.99
2019-03-13T01:12:21.026Z,7.99
2019-03-13T01:14:50.283Z,8.01
2019-03-13T01:17:21.508Z,8.03
2019-03-13T01:19:51.444Z,8.03
2019-03-13T01:22:21.274Z,8.05
2019-03-13T01:24:51.262Z,8.06
2019-03-13T01:27:20.518Z,8.06
2019-03-13T01:29:51.334Z,8.06
2019-03-13T01:32:34.282Z,8.10
2019-03-13T01:35:14.229Z,7.84
2019-03-13T01:37:44.338Z,8.05
2019-03-13T01:40:14.026Z,8.04
2019-03-13T01:42:43.676Z,8.00
2019-03-13T01:45:13.603Z,7.95
2019-03-13T01:47:43.574Z,7.88
2019-03-13T01:50:13.706Z,7.85
2019-03-13T01:52:44.877Z,7.74
2019-03-13T01:55:14.766Z,7.66
2019-03-13T01:57:44.566Z,7.58
2019-03-13T02:00:14.208Z,7.51
2019-03-13T02:02:43.333Z,7.36
2019-03-13T02:05:14.255Z,7.28
2019-03-13T02:07:44.470Z,7.17
2019-03-13T02:10:13.773Z,6.01
2019-03-13T02:12:43.829Z,7.03
2019-03-13T02:15:14.213Z,6.96
2019-03-13T02:17:43.776Z,6.93
2019-03-13T02:20:13.621Z,6.89
2019-03-13T02:22:44.658Z,6.86
2019-03-13T02:25:15.186Z,6.80
2019-03-13T02:27:45.626Z,6.73
2019-03-13T02:30:15.445Z,6.68
2019-03-13T02:32:44.773Z,6.63
2019-03-13T02:35:14.970Z,6.54
2019-03-13T02:37:44.168Z,6.10
2019-03-13T02:40:13.877Z,6.43
2019-03-13T02:42:43.408Z,6.36
2019-03-13T02:45:13.210Z,6.33
2019-03-13T02:47:43.490Z,6.28
2019-03-13T02:50:13.046Z,5.99
2019-03-13T02:52:43.819Z,6.16
2019-03-13T02:55:18.521Z,6.16
2019-03-13T02:57:48.650Z,6.13
2019-03-13T03:00:19.030Z,5.85
2019-03-13T03:02:54.183Z,6.06
2019-03-13T03:05:24.447Z,6.02
2019-03-13T03:07:54.089Z,5.97
2019-03-13T03:10:23.820Z,5.94
2019-03-13T03:12:53.602Z,5.34
2019-03-13T03:15:23.519Z,5.90
2019-03-13T03:17:52.668Z,5.84
2019-03-13T03:20:22.535Z,5.81
2019-03-13T03:22:52.626Z,5.79
2019-03-13T03:25:22.506Z,5.75
2019-03-13T03:27:51.998Z,5.68
2019-03-13T03:30:22.424Z,5.38
2019-03-13T03:32:52.481Z,5.59
2019-03-13T03:35:22.191Z,5.54
2019-03-13T03:37:52.107Z,5.27
2019-03-13T03:40:23.282Z,5.52
2019-03-13T03:42:51.493Z,5.18
2019-03-13T03:45:21.538Z,5.60
2019-03-13T03:47:50.742Z,5.61
2019-03-13T03:50:21.148Z,5.36
2019-03-13T03:52:50.987Z,5.63
2019-03-13T03:55:20.712Z,5.62
2019-03-13T03:57:50.632Z,5.61
2019-03-13T04:00:20.990Z,5.61
2019-03-13T04:02:50.724Z,5.60
2019-03-13T04:05:20.686Z,5.41
2019-03-13T04:07:50.894Z,5.54
2019-03-13T04:10:21.599Z,5.56
2019-03-13T04:12:51.424Z,5.57
2019-03-13T04:15:21.357Z,5.10
2019-03-13T04:17:51.285Z,4.39
2019-03-13T04:20:20.890Z,5.32
2019-03-13T04:22:50.043Z,5.20
2019-03-13T04:25:29.774Z,5.16
2019-03-13T04:27:59.503Z,5.17
2019-03-13T04:30:29.076Z,5.13
2019-03-13T04:32:58.295Z,5.09
2019-03-13T04:35:28.051Z,3.78
2019-03-13T04:37:57.490Z,5.02
2019-03-13T04:40:27.367Z,5.02
2019-03-13T04:42:56.503Z,5.00
2019-03-13T04:45:27.788Z,4.96
2019-03-13T04:48:02.359Z,4.90
2019-03-13T04:50:36.091Z,4.87
2019-03-13T04:53:05.440Z,4.68
2019-03-13T04:55:34.634Z,4.81
2019-03-13T04:58:04.868Z,4.78
2019-03-13T05:00:34.162Z,4.14
2019-03-13T05:03:03.326Z,4.73
2019-03-13T05:05:48.597Z,4.73
2019-03-13T05:08:30.214Z,4.73
2019-03-13T05:11:16.827Z,4.72
2019-03-13T05:13:46.798Z,4.69
2019-03-13T05:16:16.743Z,4.71
2019-03-13T05:18:46.899Z,4.69
2019-03-13T05:23:37.578Z,4.65
2019-03-13T05:26:07.754Z,4.65
2019-03-13T05:28:36.919Z,4.67
2019-03-13T05:31:06.074Z,4.70
2019-03-13T05:33:36.182Z,4.08
2019-03-13T05:36:10.156Z,3.88
2019-03-13T05:38:39.396Z,4.45
2019-03-13T05:41:09.520Z,4.73
2019-03-13T05:43:39.431Z,4.69
2019-03-13T05:46:09.336Z,4.70
2019-03-13T05:48:38.890Z,4.75
2019-03-13T05:51:08.003Z,4.76
2019-03-13T05:53:37.262Z,4.80
2019-03-13T05:56:06.871Z,4.70
2019-03-13T05:58:36.066Z,4.85
2019-03-13T06:01:05.372Z,4.87
2019-03-13T06:03:34.965Z,4.90
2019-03-13T06:06:04.530Z,4.03
2019-03-13T06:08:34.382Z,4.90
2019-03-13T06:11:04.221Z,4.57
2019-03-13T06:13:33.736Z,4.94
2019-03-13T06:16:03.110Z,4.95
2019-03-13T06:18:32.580Z,4.98
2019-03-13T06:21:01.812Z,5.03
2019-03-13T06:23:31.043Z,5.11
2019-03-13T06:26:01.034Z,5.21
2019-03-13T06:28:30.534Z,5.29
2019-03-13T06:31:00.196Z,5.38
2019-03-13T06:33:29.646Z,5.48
2019-03-13T06:35:58.872Z,5.57
2019-03-13T06:38:28.575Z,5.54
2019-03-13T06:40:58.051Z,5.69
2019-03-13T06:43:27.234Z,5.70
2019-03-13T06:45:56.375Z,5.76
2019-03-13T06:48:25.828Z,5.85
2019-03-13T06:50:55.039Z,5.76
2019-03-13T06:53:24.699Z,5.97
2019-03-13T06:55:55.315Z,6.00
2019-03-13T06:58:38.013Z,6.04
2019-03-13T07:01:14.896Z,6.09
2019-03-13T07:03:49.515Z,5.92
2019-03-13T07:06:29.539Z,6.11
2019-03-13T07:09:11.864Z,6.05
2019-03-13T07:11:49.466Z,6.33
2019-03-13T07:14:24.114Z,6.29
2019-03-13T07:19:01.687Z,6.36
2019-03-13T07:22:06.131Z,6.68
2019-03-13T07:24:47.754Z,6.85
2019-03-13T07:27:21.973Z,6.94
2019-03-13T07:30:11.867Z,6.95
2019-03-13T07:34:47.977Z,6.73
2019-03-13T07:37:23.423Z,6.88
2019-03-13T07:39:57.710Z,6.82
2019-03-13T07:42:36.443Z,6.84
2019-03-13T07:45:26.614Z,6.82
2019-03-13T07:50:02.387Z,6.68
2019-03-13T07:52:50.736Z,7.00
2019-03-13T07:55:29.154Z,6.91
2019-03-13T07:58:19.084Z,6.94
2019-03-13T08:00:52.889Z,6.95
2019-03-13T08:03:29.127Z,7.13
2019-03-13T08:08:08.538Z,7.21
2019-03-13T08:10:46.957Z,7.19
2019-03-13T08:13:32.951Z,7.17
2019-03-13T08:16:11.205Z,7.45
2019-03-13T08:20:53.226Z,7.83
2019-03-13T08:25:29.734Z,8.05
2019-03-13T08:28:21.936Z,7.95
2019-03-13T08:30:59.023Z,7.72
2019-03-13T08:33:39.348Z,7.25
2019-03-13T08:36:13.990Z,7.34
2019-03-13T08:38:50.350Z,7.15
2019-03-13T08:41:38.930Z,7.27
2019-03-13T08:44:16.146Z,8.07
2019-03-13T08:46:53.339Z,8.12
2019-03-13T08:49:58.497Z,8.48
2019-03-13T08:52:39.225Z,8.92
2019-03-13T08:55:13.550Z,9.06
2019-03-13T08:57:47.976Z,9.22
2019-03-13T09:00:26.687Z,9.16
2019-03-13T09:03:05.140Z,8.82
2019-03-13T09:05:43.495Z,8.50
2019-03-13T09:09:19.135Z,8.21
2019-03-13T09:11:56.318Z,8.08
2019-03-13T09:16:38.709Z,7.80
2019-03-13T09:21:17.234Z,8.05
2019-03-13T09:23:52.930Z,8.10
2019-03-13T09:26:32.966Z,8.24
2019-03-13T09:29:13.809Z,8.24
2019-03-13T09:31:48.080Z,8.22
2019-03-13T09:36:23.754Z,8.16
2019-03-13T09:39:31.902Z,7.78
2019-03-13T09:42:06.456Z,7.79
2019-03-13T09:44:46.127Z,7.86
2019-03-13T09:49:27.701Z,7.85
2019-03-13T09:54:06.455Z,7.89
2019-03-13T09:56:43.896Z,7.82
2019-03-13T09:59:19.899Z,7.89
2019-03-13T10:02:57.267Z,8.19
2019-03-13T10:05:47.571Z,8.21
2019-03-13T10:08:22.052Z,8.17
2019-03-13T10:11:02.716Z,7.92
2019-03-13T10:13:41.331Z,8.22
2019-03-13T10:16:21.746Z,8.35
2019-03-13T10:19:39.118Z,8.56
2019-03-13T10:22:21.262Z,8.71
2019-03-13T10:25:16.037Z,8.70
2019-03-13T10:27:52.685Z,8.61
2019-03-13T10:31:32.366Z,9.04
2019-03-13T10:34:36.730Z,9.03
2019-03-13T10:37:45.716Z,9.05
2019-03-13T10:40:21.055Z,9.60
2019-03-13T10:42:56.572Z,9.68
2019-03-13T10:45:30.063Z,9.53
2019-03-13T10:48:06.684Z,9.64
2019-03-13T10:51:16.859Z,9.67
2019-03-13T10:53:52.449Z,10.25
2019-03-13T10:56:26.783Z,10.58
2019-03-13T10:59:05.654Z,10.61
2019-03-13T11:01:42.209Z,10.23
2019-03-13T11:04:19.794Z,10.76
2019-03-13T11:07:10.478Z,10.62
2019-03-13T11:09:47.519Z,9.80
2019-03-13T11:12:38.410Z,10.34
2019-03-13T11:15:13.479Z,10.65
2019-03-13T11:18:20.560Z,10.73
2019-03-13T11:20:56.980Z,10.70
2019-03-13T11:23:33.199Z,10.79
2019-03-13T11:26:15.322Z,10.67
2019-03-13T11:28:48.811Z,11.01
2019-03-13T11:31:23.870Z,10.75
2019-03-13T11:34:12.272Z,10.59
2019-03-13T11:36:46.019Z,10.36
2019-03-13T11:39:26.615Z,10.05
2019-03-13T11:44:02.641Z,10.10
2019-03-13T11:46:38.434Z,9.83
2019-03-13T11:49:13.037Z,9.73
2019-03-13T11:52:06.341Z,9.68
2019-03-13T11:54:42.811Z,9.20
2019-03-13T11:57:19.131Z,9.70
2019-03-13T11:59:56.834Z,9.58
2019-03-13T12:03:34.346Z,9.90
2019-03-13T12:06:22.926Z,10.03
2019-03-13T12:09:01.054Z,10.57
2019-03-13T12:11:35.879Z,10.43
2019-03-13T12:14:25.918Z,10.35
2019-03-13T12:18:04.594Z,10.11
2019-03-13T12:20:39.986Z,10.09
2019-03-13T12:23:18.039Z,10.05
2019-03-13T12:25:54.022Z,9.73
2019-03-13T12:28:29.928Z,9.78
2019-03-13T12:31:04.239Z,10.08
2019-03-13T12:33:54.964Z,10.11
2019-03-13T12:38:30.693Z,9.66
2019-03-13T12:41:07.218Z,9.48
2019-03-13T12:43:53.524Z,10.07
2019-03-13T12:48:31.167Z,10.06
2019-03-13T12:51:14.473Z,9.57
2019-03-13T12:53:55.047Z,9.54
2019-03-13T12:56:30.546Z,9.71
2019-03-13T12:59:08.970Z,9.62
2019-03-13T13:01:45.391Z,9.72
2019-03-13T13:04:19.983Z,9.77
2019-03-13T13:06:57.358Z,9.64
2019-03-13T13:09:32.062Z,9.53
2019-03-13T13:12:06.542Z,10.09
2019-03-13T13:16:43.571Z,10.13
2019-03-13T13:19:12.834Z,9.90
2019-03-13T13:21:42.421Z,9.78
2019-03-13T13:24:12.243Z,9.63
2019-03-13T13:26:45.698Z,9.53
2019-03-13T13:29:15.074Z,9.14
2019-03-13T13:31:45.194Z,9.52
2019-03-13T13:34:14.780Z,9.49
2019-03-13T13:36:43.979Z,9.34
2019-03-13T13:39:14.253Z,9.59
2019-03-13T13:41:43.615Z,9.68
2019-03-13T13:44:13.371Z,8.86
2019-03-13T13:46:44.657Z,9.71
2019-03-13T13:49:14.225Z,9.63
2019-03-13T13:51:43.707Z,9.61
2019-03-13T13:54:18.750Z,9.55
2019-03-13T13:56:48.054Z,9.53
2019-03-13T13:59:17.455Z,9.42
2019-03-13T14:01:46.875Z,9.27
2019-03-13T14:04:16.092Z,9.44
2019-03-13T14:06:46.391Z,9.45
2019-03-13T14:09:16.654Z,8.59
2019-03-13T14:11:47.051Z,9.14
2019-03-13T14:14:16.882Z,9.48
2019-03-13T14:16:46.547Z,9.51
2019-03-13T14:19:15.918Z,9.53
2019-03-13T14:21:45.513Z,9.20
2019-03-13T14:24:17.412Z,9.39
2019-03-13T14:26:44.951Z,9.29
2019-03-13T14:29:15.311Z,9.42
2019-03-13T14:31:45.110Z,9.29
2019-03-13T14:34:15.441Z,9.42
2019-03-13T14:36:46.039Z,9.40
2019-03-13T14:39:18.128Z,9.12
2019-03-13T14:41:49.997Z,9.29
2019-03-13T14:44:19.869Z,9.29
2019-03-13T14:46:49.896Z,9.28
2019-03-13T14:49:19.271Z,9.23
2019-03-13T14:51:48.611Z,9.21
2019-03-13T14:54:18.369Z,9.19
2019-03-13T14:56:48.427Z,9.18
2019-03-13T14:59:17.717Z,9.13
2019-03-13T15:01:47.526Z,9.09
2019-03-13T15:04:16.932Z,8.85
2019-03-13T15:06:48.271Z,8.97
2019-03-13T15:09:18.464Z,8.99
2019-03-13T15:11:48.807Z,8.58
2019-03-13T15:14:18.731Z,9.16
2019-03-13T15:16:48.627Z,9.20
2019-03-13T15:19:18.322Z,9.22
2019-03-13T15:21:47.868Z,9.25
2019-03-13T15:24:17.601Z,9.23
2019-03-13T15:26:47.199Z,9.21
2019-03-13T15:29:16.610Z,9.11
2019-03-13T15:31:46.265Z,9.23
2019-03-13T15:34:15.906Z,9.12
2019-03-13T15:36:45.251Z,9.22
2019-03-13T15:39:14.956Z,9.19
2019-03-13T15:41:45.905Z,9.03
2019-03-13T15:44:15.471Z,9.10
2019-03-13T15:46:45.003Z,8.92
2019-03-13T15:49:14.506Z,8.88
2019-03-13T15:51:44.238Z,9.02
2019-03-13T15:54:13.795Z,8.99
2019-03-13T15:56:43.208Z,8.89
2019-03-13T15:59:12.589Z,9.01
2019-03-13T16:01:42.431Z,9.04
2019-03-13T16:04:11.836Z,9.00
2019-03-13T16:06:42.070Z,8.86
2019-03-13T16:09:11.750Z,8.96
2019-03-13T16:11:41.266Z,8.94
2019-03-13T16:14:10.802Z,8.70
2019-03-13T16:16:40.593Z,8.90
2019-03-13T16:19:10.377Z,8.79
2019-03-13T16:21:39.606Z,8.76
2019-03-13T16:24:09.310Z,8.83
2019-03-13T16:26:38.754Z,8.57
2019-03-13T16:29:08.113Z,8.74
2019-03-13T16:31:37.795Z,8.72
2019-03-13T16:34:07.265Z,8.46
2019-03-13T16:36:40.858Z,8.67
2019-03-13T16:39:10.570Z,8.67
2019-03-13T16:41:40.094Z,8.66
2019-03-13T16:44:09.921Z,8.63
2019-03-13T16:46:39.673Z,8.62
2019-03-13T16:49:08.930Z,8.59
2019-03-13T16:51:38.639Z,8.56
2019-03-13T16:54:08.310Z,8.31
2019-03-13T16:56:37.768Z,8.46
2019-03-13T16:59:07.199Z,8.29
2019-03-13T17:01:36.953Z,8.30
2019-03-13T17:04:06.666Z,8.21
2019-03-13T17:06:35.791Z,8.08
2019-03-13T17:09:10.804Z,7.95
2019-03-13T17:11:41.227Z,7.72
2019-03-13T17:14:10.558Z,7.74
2019-03-13T17:16:40.462Z,7.65
2019-03-13T17:19:09.662Z,7.61
2019-03-13T17:21:39.270Z,7.44
2019-03-13T17:24:08.436Z,7.52
2019-03-13T17:26:37.552Z,7.47
2019-03-13T17:29:07.487Z,7.30
2019-03-13T17:31:36.975Z,7.38
2019-03-13T17:34:08.266Z,7.09
2019-03-13T17:36:38.425Z,7.29
2019-03-13T17:39:08.634Z,7.29
2019-03-13T17:41:38.203Z,7.32
2019-03-13T17:44:08.034Z,7.32
2019-03-13T17:46:37.579Z,7.33
2019-03-13T17:49:07.167Z,7.31
2019-03-13T17:51:37.328Z,7.15
2019-03-13T17:54:06.810Z,6.91
2019-03-13T17:56:36.220Z,7.08
2019-03-13T17:59:06.000Z,7.15
2019-03-13T18:01:36.163Z,7.13
2019-03-13T18:04:05.560Z,7.10
2019-03-13T18:06:35.418Z,7.06
2019-03-13T18:09:05.570Z,7.02
2019-03-13T18:11:34.754Z,6.99
2019-03-13T18:14:04.471Z,6.37
2019-03-13T18:16:33.678Z,6.46
2019-03-13T18:19:03.983Z,6.93
2019-03-13T18:21:34.551Z,6.94
2019-03-13T18:24:04.014Z,6.95
2019-03-13T18:26:33.410Z,6.94
2019-03-13T18:29:04.976Z,6.85
2019-03-13T18:31:34.731Z,6.96
2019-03-13T18:34:04.026Z,6.94
2019-03-13T18:36:33.551Z,6.80
2019-03-13T18:39:02.990Z,6.87
2019-03-13T18:41:32.235Z,6.70
2019-03-13T18:44:01.923Z,6.79
2019-03-13T18:46:31.223Z,6.76
2019-03-13T18:49:00.491Z,6.48
2019-03-13T18:51:29.969Z,6.71
2019-03-13T18:53:59.285Z,6.67
2019-03-13T18:56:28.486Z,6.63
2019-03-13T18:58:57.991Z,6.60
2019-03-13T19:01:27.182Z,6.54
2019-03-13T19:03:56.392Z,6.48
2019-03-13T19:06:25.843Z,6.41
2019-03-13T19:08:55.028Z,6.36
2019-03-13T19:11:24.372Z,6.31
2019-03-13T19:13:53.820Z,6.28
2019-03-13T19:16:23.127Z,6.25
2019-03-13T19:18:52.421Z,6.22
2019-03-13T19:21:22.146Z,6.08
2019-03-13T19:23:52.467Z,6.07
2019-03-13T19:26:21.731Z,6.07
2019-03-13T19:28:51.443Z,6.08
2019-03-13T19:31:20.614Z,6.17
2019-03-13T19:33:49.815Z,6.17
2019-03-13T19:36:19.253Z,6.19
2019-03-13T19:38:48.540Z,6.21
2019-03-13T19:41:17.684Z,6.14
2019-03-13T19:43:47.131Z,6.25
2019-03-13T19:46:16.358Z,6.24
2019-03-13T19:48:45.524Z,6.26
2019-03-13T19:51:15.042Z,6.27
2019-03-13T19:53:44.259Z,6.15
2019-03-13T19:56:13.498Z,6.14
2019-03-13T19:58:42.957Z,5.66
2019-03-13T20:01:12.237Z,6.23
2019-03-13T20:03:54.171Z,6.23
2019-03-13T20:06:11.237Z,6.23
2019-03-13T20:08:40.465Z,6.10
2019-03-13T20:11:09.651Z,6.22
2019-03-13T20:13:39.125Z,6.23
2019-03-13T20:16:08.583Z,6.23
2019-03-13T20:18:38.190Z,6.23
2019-03-13T20:21:08.275Z,6.26
2019-03-13T20:23:37.426Z,6.11
2019-03-13T20:26:06.628Z,6.23
2019-03-13T20:28:36.216Z,6.12
2019-03-13T20:31:05.468Z,6.21
2019-03-13T20:33:34.699Z,6.16
2019-03-13T20:36:04.435Z,5.85
2019-03-13T20:38:33.698Z,6.04
2019-03-13T20:41:02.874Z,5.86
2019-03-13T20:43:32.230Z,5.96
2019-03-13T20:46:01.455Z,5.94
2019-03-13T20:48:30.650Z,5.92
2019-03-13T20:51:00.026Z,5.90
2019-03-13T20:53:29.298Z,5.88
2019-03-13T20:55:58.947Z,5.62
2019-03-13T20:58:28.034Z,5.87
2019-03-13T21:00:57.223Z,5.85
2019-03-13T21:03:26.466Z,5.84
2019-03-13T21:05:56.623Z,5.84
2019-03-13T21:08:25.766Z,5.83
2019-03-13T21:10:55.150Z,5.25
2019-03-13T21:13:24.803Z,5.73
2019-03-13T21:15:54.209Z,5.84
2019-03-13T21:18:23.518Z,5.73
2019-03-13T21:20:52.684Z,5.75
2019-03-13T21:23:21.880Z,5.92
2019-03-13T21:25:51.261Z,5.68
2019-03-13T21:28:21.630Z,5.93
2019-03-13T21:30:50.730Z,5.94
2019-03-13T21:33:20.023Z,5.97
2019-03-13T21:35:49.736Z,5.95
2019-03-13T21:38:18.922Z,5.92
2019-03-13T21:40:48.689Z,5.84
2019-03-13T21:43:18.170Z,5.87
2019-03-13T21:45:47.501Z,5.73
2019-03-13T21:48:16.807Z,5.61
2019-03-13T21:50:46.258Z,5.84
2019-03-13T21:53:15.435Z,5.84
2019-03-13T21:55:44.654Z,5.83
2019-03-13T21:58:14.201Z,5.72
2019-03-13T22:00:43.658Z,5.86
2019-03-13T22:03:12.782Z,5.85
2019-03-13T22:05:42.611Z,5.83
2019-03-13T22:08:12.554Z,5.83
2019-03-13T22:10:41.951Z,5.81
2019-03-13T22:13:11.600Z,5.79
2019-03-13T22:15:41.650Z,5.52
2019-03-13T22:18:11.699Z,5.73
2019-03-13T22:20:41.283Z,5.71
2019-03-13T22:23:10.554Z,5.69
2019-03-13T22:25:40.239Z,5.45
2019-03-13T22:28:09.967Z,5.66
2019-03-13T22:30:39.875Z,5.66
2019-03-13T22:33:09.726Z,5.56
2019-03-13T22:35:40.144Z,5.65
2019-03-13T22:38:09.329Z,5.57
2019-03-13T22:40:39.106Z,5.69
2019-03-13T22:43:08.506Z,5.68
2019-03-13T22:45:39.078Z,5.67
2019-03-13T22:48:09.067Z,5.66
2019-03-13T22:50:39.086Z,5.68
2019-03-13T22:53:09.082Z,5.70
2019-03-13T22:55:41.021Z,5.73
2019-03-13T22:58:09.986Z,5.74
2019-03-13T23:00:48.811Z,5.51
2019-03-13T23:03:18.591Z,5.77
2019-03-13T23:05:48.790Z,5.77
2019-03-13T23:08:17.902Z,5.75
2019-03-13T23:10:47.591Z,5.77
2019-03-13T23:13:17.799Z,5.53
2019-03-13T23:15:47.615Z,5.77
2019-03-13T23:18:18.421Z,5.79
2019-03-13T23:20:47.657Z,5.31
2019-03-13T23:23:16.930Z,5.80
2019-03-13T23:25:47.534Z,5.20
2019-03-13T23:28:17.438Z,5.81
2019-03-13T23:30:47.272Z,5.81
2019-03-13T23:33:17.479Z,5.85
2019-03-13T23:35:47.454Z,5.86
2019-03-13T23:38:17.331Z,5.86
2019-03-13T23:40:47.042Z,5.85
2019-03-13T23:43:17.019Z,5.86
2019-03-13T23:45:47.047Z,5.83
2019-03-13T23:48:16.690Z,5.81
2019-03-13T23:50:47.272Z,5.80
2019-03-13T23:53:16.988Z,5.77
2019-03-13T23:55:46.392Z,5.79
2019-03-13T23:58:16.163Z,5.43
